Time;durP1;ratioP1;P1;durP2;ratioP2;P2;SDS_P1;SDS_P2;PMS_P1;PMS_P2;Temp;Humidity;BMP_temperature;BMP_pressure;BME280_temperature;BME280_humidity;BME280_pressure;Samples;Min_cycle;Max_cycle;Signal;HPM_P1;HPM_P2
2023/05/28 00:01:20;;;;;;;7.90;5.70;;;;;;;10.98;88.45;95724.34;106602;1275;22932;-74
2023/05/28 00:10:00;;;;;;;10.50;5.50;;;;;;;11.05;87.00;95709.60;103577;1314;545406;-73
2023/05/28 00:12:28;;;;;;;7.50;5.60;;;;;;;10.91;86.71;95713.76;105896;1289;24380;-73
2023/05/28 00:14:56;;;;;;;7.60;5.50;;;;;;;10.81;86.93;95714.42;105874;1289;22533;-73
2023/05/28 00:17:24;;;;;;;8.80;6.30;;;;;;;10.72;88.06;95713.19;105891;1289;24443;-73
2023/05/28 00:19:53;;;;;;;11.10;6.10;;;;;;;10.66;87.94;95713.83;105928;1289;22588;-73
2023/05/28 00:22:22;;;;;;;9.60;6.50;;;;;;;10.59;88.37;95709.02;105357;1286;662456;-73
2023/05/28 00:24:50;;;;;;;7.30;5.50;;;;;;;10.58;88.15;95711.33;105761;1286;24391;-72
2023/05/28 00:27:18;;;;;;;7.90;5.80;;;;;;;10.58;88.02;95710.45;106580;1275;22846;-73
2023/05/28 00:29:46;;;;;;;7.30;5.80;;;;;;;10.56;87.81;95710.48;106793;1275;22882;-72
2023/05/28 00:32:14;;;;;;;7.70;6.30;;;;;;;10.57;87.75;95707.65;106894;1275;26776;-72
2023/05/28 00:34:43;;;;;;;10.00;5.80;;;;;;;10.58;88.08;95704.30;106617;1275;22520;-73
2023/05/28 00:37:11;;;;;;;11.50;5.30;;;;;;;10.52;87.46;95703.50;106557;1275;25330;-72
2023/05/28 00:39:40;;;;;;;15.90;5.80;;;;;;;10.47;87.36;95704.82;106576;1275;24207;-74
2023/05/28 00:42:10;;;;;;;9.20;5.60;;;;;;;10.43;88.18;95706.13;106548;1253;24219;-73
2023/05/28 00:44:39;;;;;;;7.20;5.70;;;;;;;10.35;88.14;95704.66;106517;1275;22527;-74
2023/05/28 00:47:08;;;;;;;8.80;5.70;;;;;;;10.28;89.15;95706.88;106637;1275;22520;-73
2023/05/28 00:49:37;;;;;;;6.90;5.70;;;;;;;10.23;88.51;95703.25;106810;1275;22515;-73
2023/05/28 00:52:07;;;;;;;9.80;6.10;;;;;;;10.22;88.36;95700.63;106584;1275;24215;-73
2023/05/28 00:54:35;;;;;;;10.00;5.30;;;;;;;10.22;88.52;95699.39;106574;1275;22773;-73
2023/05/28 00:57:04;;;;;;;7.70;5.60;;;;;;;10.17;88.68;95693.30;106642;1275;22523;-73
2023/05/28 00:59:35;;;;;;;7.30;5.20;;;;;;;10.14;89.53;95690.19;106655;1275;24442;-73
2023/05/28 01:02:04;;;;;;;10.20;5.20;;;;;;;10.11;89.79;95685.48;106605;1275;24322;-73
2023/05/28 01:04:33;;;;;;;10.10;5.40;;;;;;;10.12;89.92;95684.77;106597;1275;25400;-73
2023/05/28 01:07:01;;;;;;;9.20;5.60;;;;;;;10.21;89.97;95680.95;106563;1275;22563;-74
2023/05/28 01:09:30;;;;;;;6.00;5.10;;;;;;;10.24;89.51;95677.39;106622;1275;27248;-73
2023/05/28 01:11:59;;;;;;;6.10;5.50;;;;;;;10.22;89.07;95679.52;106541;1275;25636;-73
2023/05/28 01:14:29;;;;;;;7.70;5.10;;;;;;;10.24;89.31;95680.90;106581;1275;25325;-73
2023/05/28 01:16:58;;;;;;;5.40;4.70;;;;;;;10.30;89.34;95680.30;106660;1275;25249;-73
2023/05/28 01:19:28;;;;;;;6.20;4.40;;;;;;;10.34;89.12;95680.58;106580;1275;22658;-73
2023/05/28 01:22:02;;;;;;;10.10;5.30;;;;;;;10.31;88.47;95684.51;106576;1275;24057;-75
2023/05/28 01:24:39;;;;;;;10.90;5.00;;;;;;;10.28;88.45;95685.08;106581;1275;22646;-74
2023/05/28 01:27:07;;;;;;;9.80;4.80;;;;;;;10.29;88.49;95688.05;106689;1275;22528;-74
2023/05/28 01:29:36;;;;;;;9.00;5.10;;;;;;;10.30;88.47;95684.88;106956;1275;22551;-73
2023/05/28 01:32:05;;;;;;;11.10;4.70;;;;;;;10.34;88.61;95685.15;106727;1275;22532;-74
2023/05/28 01:34:33;;;;;;;5.70;4.60;;;;;;;10.27;87.88;95685.43;106586;1275;22541;-73
2023/05/28 01:37:07;;;;;;;9.60;5.40;;;;;;;10.23;87.86;95688.65;106567;1275;22558;-74
2023/05/28 01:39:42;;;;;;;6.60;4.50;;;;;;;10.18;88.52;95688.38;106646;1275;25327;-74
2023/05/28 01:42:12;;;;;;;6.80;4.30;;;;;;;10.17;88.84;95689.44;106581;1275;22521;-74
2023/05/28 01:44:42;;;;;;;6.10;4.50;;;;;;;10.15;88.47;95684.36;106539;1275;25340;-74
2023/05/28 01:47:12;;;;;;;4.70;4.10;;;;;;;10.11;88.31;95689.54;106527;1275;25277;-74
2023/05/28 01:49:42;;;;;;;5.20;4.50;;;;;;;10.08;88.76;95685.02;106560;1275;22530;-74
2023/05/28 01:52:13;;;;;;;6.80;4.90;;;;;;;10.04;88.66;95688.41;106563;1275;22531;-74
2023/05/28 01:54:41;;;;;;;8.80;4.60;;;;;;;10.03;89.45;95687.02;106601;1275;24344;-74
2023/05/28 01:57:10;;;;;;;6.50;4.80;;;;;;;10.13;89.81;95681.25;106609;1275;24246;-74
2023/05/28 01:59:39;;;;;;;7.30;5.30;;;;;;;10.15;89.27;95680.52;106643;1275;24454;-74
2023/05/28 02:02:08;;;;;;;9.70;5.30;;;;;;;10.21;89.69;95673.38;106592;1275;25492;-74
2023/05/28 02:04:36;;;;;;;7.30;4.60;;;;;;;10.22;88.94;95677.77;106646;1275;22748;-74
2023/05/28 02:07:05;;;;;;;9.70;5.10;;;;;;;10.20;88.80;95679.02;106604;1275;25490;-74
2023/05/28 02:09:33;;;;;;;6.50;4.60;;;;;;;10.22;88.49;95680.58;106345;1276;24200;-74
2023/05/28 02:12:02;;;;;;;9.20;6.30;;;;;;;10.26;88.64;95679.99;106472;1276;22660;-74
2023/05/28 02:14:32;;;;;;;9.00;5.10;;;;;;;10.29;88.24;95686.46;106610;1276;22636;-74
2023/05/28 02:17:01;;;;;;;9.80;4.70;;;;;;;10.25;87.87;95684.58;106700;1276;24249;-74
2023/05/28 02:19:29;;;;;;;10.10;5.10;;;;;;;10.23;87.67;95687.25;106490;1276;22540;-74
2023/05/28 02:21:57;;;;;;;8.30;5.60;;;;;;;10.23;87.59;95687.42;106531;1276;22651;-74
2023/05/28 02:24:25;;;;;;;6.70;4.90;;;;;;;10.10;86.72;95688.48;106528;1276;24303;-73
2023/05/28 02:26:54;;;;;;;8.10;4.50;;;;;;;9.98;86.82;95687.80;106575;1276;25167;-74
2023/05/28 02:29:24;;;;;;;7.70;6.10;;;;;;;9.96;87.40;95685.71;106503;1276;26638;-73
2023/05/28 02:31:52;;;;;;;9.60;5.70;;;;;;;9.96;87.38;95685.02;106511;1276;23887;-74
2023/05/28 02:34:21;;;;;;;6.50;5.30;;;;;;;9.85;87.65;95687.64;106496;1276;24195;-74
2023/05/28 02:36:52;;;;;;;7.60;4.90;;;;;;;9.80;88.46;95687.70;106700;1276;22533;-74
2023/05/28 02:39:21;;;;;;;6.70;5.30;;;;;;;9.70;88.37;95689.77;106537;1276;24232;-74
2023/05/28 02:41:50;;;;;;;6.90;4.60;;;;;;;9.66;88.52;95685.42;106540;1276;22895;-74
2023/05/28 02:44:18;;;;;;;8.90;5.40;;;;;;;9.63;88.86;95688.12;106507;1276;22781;-75
2023/05/28 02:46:48;;;;;;;7.40;5.10;;;;;;;9.58;88.62;95691.16;106563;1276;24378;-75
2023/05/28 02:49:16;;;;;;;9.00;5.50;;;;;;;9.53;89.36;95686.31;106537;1276;26635;-75
2023/05/28 02:51:45;;;;;;;7.40;5.10;;;;;;;9.50;90.02;95690.37;106471;1276;22576;-75
2023/05/28 02:54:20;;;;;;;13.60;6.20;;;;;;;9.43;89.50;95688.55;106510;1275;22636;-75
2023/05/28 02:56:48;;;;;;;7.80;6.60;;;;;;;9.39;89.62;95686.84;106495;1276;24210;-75
2023/05/28 02:59:16;;;;;;;10.70;6.30;;;;;;;9.38;90.68;95688.27;106501;1276;25406;-75
2023/05/28 03:01:45;;;;;;;6.60;4.60;;;;;;;9.37;90.88;95686.16;106551;1276;22540;-75
2023/05/28 03:04:14;;;;;;;8.30;6.50;;;;;;;9.33;90.80;95683.40;106526;1276;25470;-75
2023/05/28 03:06:42;;;;;;;13.20;5.60;;;;;;;9.31;90.40;95682.73;106608;1276;22581;-76
2023/05/28 03:09:11;;;;;;;6.20;5.40;;;;;;;9.26;90.73;95684.54;106668;1275;23023;-76
2023/05/28 03:11:40;;;;;;;10.20;5.30;;;;;;;9.26;90.94;95685.77;106952;1275;22523;-76
2023/05/28 03:14:08;;;;;;;7.20;5.80;;;;;;;9.26;90.79;95692.27;106552;1275;24274;-75
2023/05/28 03:16:36;;;;;;;9.10;5.10;;;;;;;9.23;91.00;95690.54;106540;1268;23723;-76
2023/05/28 03:19:08;;;;;;;8.30;5.10;;;;;;;9.25;90.67;95691.92;106546;1275;22770;-76
2023/05/28 03:21:36;;;;;;;7.40;4.80;;;;;;;9.30;90.77;95694.32;106673;1275;22531;-76
2023/05/28 03:24:05;;;;;;;9.30;5.40;;;;;;;9.36;90.99;95693.20;106573;1275;25458;-76
2023/05/28 03:26:42;;;;;;;6.70;4.70;;;;;;;9.40;91.14;95695.60;106580;1275;22963;-76
2023/05/28 03:29:10;;;;;;;7.10;5.70;;;;;;;9.45;91.48;95695.54;106572;1275;25900;-76
2023/05/28 03:32:08;;;;;;;10.30;5.00;;;;;;;9.56;91.45;95691.55;106428;1275;22787;-76
2023/05/28 03:34:36;;;;;;;8.00;5.50;;;;;;;9.70;91.52;95693.29;106752;1275;25407;-76
2023/05/28 03:37:05;;;;;;;10.00;5.30;;;;;;;9.83;91.29;95689.59;106782;1275;25419;-76
2023/05/28 03:39:35;;;;;;;6.00;5.20;;;;;;;9.86;91.04;95687.80;106642;1275;25594;-76
2023/05/28 03:42:05;;;;;;;10.50;5.60;;;;;;;9.89;91.07;95683.36;106587;1275;24364;-76
2023/05/28 03:44:35;;;;;;;8.30;5.40;;;;;;;10.02;91.71;95687.55;106819;1275;22650;-76
2023/05/28 03:47:03;;;;;;;6.90;4.90;;;;;;;10.21;91.98;95683.58;106771;1276;25399;-76
2023/05/28 03:49:32;;;;;;;9.20;5.20;;;;;;;10.32;91.42;95682.39;106742;1275;23155;-76
2023/05/28 03:52:00;;;;;;;10.50;6.80;;;;;;;10.44;91.38;95684.83;106585;1271;25500;-76
2023/05/28 03:54:33;;;;;;;11.60;6.60;;;;;;;10.52;90.48;95687.34;106622;1275;25337;-76
2023/05/28 03:57:02;;;;;;;9.10;6.20;;;;;;;10.59;90.47;95689.15;106570;1276;24247;-76
2023/05/28 03:59:30;;;;;;;13.10;7.20;;;;;;;10.68;90.27;95689.17;106454;1275;22612;-76
2023/05/28 04:01:58;;;;;;;8.80;6.80;;;;;;;10.74;89.82;95688.36;106686;1275;25400;-76
2023/05/28 04:04:27;;;;;;;10.20;5.40;;;;;;;10.75;89.92;95683.23;106946;1275;25457;-76
2023/05/28 04:06:56;;;;;;;6.40;5.20;;;;;;;10.80;89.52;95681.37;106639;1275;25618;-76
2023/05/28 04:09:24;;;;;;;7.60;5.30;;;;;;;10.83;89.33;95688.73;106649;1275;25398;-76
2023/05/28 04:11:53;;;;;;;9.40;5.90;;;;;;;10.92;89.86;95686.26;106509;1275;22538;-76
2023/05/28 04:14:22;;;;;;;7.80;5.10;;;;;;;11.03;90.18;95682.55;106627;1275;22867;-74
2023/05/28 04:16:51;;;;;;;6.40;5.50;;;;;;;11.17;90.46;95681.23;106867;1275;23027;-75
2023/05/28 04:19:19;;;;;;;7.80;5.30;;;;;;;11.34;90.39;95683.17;106684;1275;23003;-75
2023/05/28 04:21:48;;;;;;;6.60;5.20;;;;;;;11.46;90.08;95679.23;106636;1262;22556;-75
2023/05/28 04:24:16;;;;;;;6.40;5.30;;;;;;;11.58;89.83;95679.16;106579;1275;25397;-74
2023/05/28 04:26:44;;;;;;;6.90;5.20;;;;;;;11.72;89.98;95681.85;106569;1275;22607;-75
2023/05/28 04:29:15;;;;;;;8.10;5.30;;;;;;;11.89;89.54;95679.02;106587;1275;24402;-75
2023/05/28 04:31:44;;;;;;;5.80;4.80;;;;;;;12.04;89.29;95679.76;106593;1275;25473;-75
2023/05/28 04:34:16;;;;;;;7.60;4.60;;;;;;;12.13;88.34;95678.67;106347;1275;23948;-75
2023/05/28 04:36:45;;;;;;;7.20;4.70;;;;;;;12.25;88.13;95670.11;106540;1275;22642;-75
2023/05/28 04:39:14;;;;;;;8.70;4.80;;;;;;;12.37;87.92;95671.93;106558;1275;22507;-76
2023/05/28 04:41:43;;;;;;;6.50;5.10;;;;;;;12.54;87.96;95671.34;106824;1275;22531;-76
2023/05/28 04:44:15;;;;;;;6.40;5.10;;;;;;;12.65;86.80;95678.13;106727;1275;22528;-76
2023/05/28 04:46:45;;;;;;;6.10;5.50;;;;;;;12.81;86.79;95677.02;106615;1275;22595;-76
2023/05/28 04:49:13;;;;;;;7.40;5.70;;;;;;;12.90;85.76;95677.11;106620;1275;24851;-76
2023/05/28 04:51:41;;;;;;;6.30;5.40;;;;;;;12.96;85.57;95674.48;106566;1275;24433;-75
2023/05/28 04:54:09;;;;;;;9.00;6.30;;;;;;;13.06;85.80;95675.83;106555;1275;22540;-74
2023/05/28 04:56:38;;;;;;;12.40;7.70;;;;;;;13.23;86.34;95671.30;106695;1275;24305;-74
2023/05/28 04:59:09;;;;;;;10.50;7.20;;;;;;;13.43;86.70;95672.19;106676;1261;25218;-75
2023/05/28 05:01:39;;;;;;;22.40;13.20;;;;;;;13.64;86.30;95673.68;106630;1275;22518;-73
2023/05/28 05:04:08;;;;;;;24.60;15.00;;;;;;;13.79;85.57;95670.08;106623;1275;22541;-74
2023/05/28 05:06:37;;;;;;;15.40;10.10;;;;;;;13.99;85.79;95672.30;106700;1275;22790;-74
2023/05/28 05:09:05;;;;;;;9.00;7.10;;;;;;;14.15;84.29;95667.18;106596;1275;25227;-74
2023/05/28 05:11:34;;;;;;;8.00;5.70;;;;;;;14.23;80.07;95666.39;106553;1254;24223;-74
2023/05/28 05:14:03;;;;;;;7.30;6.10;;;;;;;14.40;80.56;95660.73;106935;1275;26635;-74
2023/05/28 05:16:32;;;;;;;6.40;5.70;;;;;;;14.60;80.94;95662.21;106908;1275;24366;-75
2023/05/28 05:19:00;;;;;;;9.10;6.30;;;;;;;14.75;78.68;95657.84;106658;1275;23133;-75
2023/05/28 05:21:31;;;;;;;9.40;5.80;;;;;;;14.91;78.50;95658.70;106626;1275;22658;-75
2023/05/28 05:23:59;;;;;;;8.00;6.50;;;;;;;15.08;77.24;95660.77;106580;1275;22521;-75
2023/05/28 05:26:27;;;;;;;6.10;5.20;;;;;;;15.22;77.78;95660.09;106562;1275;22625;-75
2023/05/28 05:28:55;;;;;;;5.50;4.70;;;;;;;15.42;78.55;95658.85;106606;1275;25340;-75
2023/05/28 05:31:24;;;;;;;6.60;5.30;;;;;;;15.57;76.19;95660.23;106371;1275;22563;-75
2023/05/28 05:33:53;;;;;;;6.60;5.30;;;;;;;15.75;76.23;95664.02;106607;1275;22531;-72
2023/05/28 05:36:37;;;;;;;5.40;4.90;;;;;;;15.98;76.50;95668.48;106546;1275;25542;-72
2023/05/28 05:39:23;;;;;;;6.70;5.30;;;;;;;16.11;74.48;95671.36;106751;1275;22524;-72
2023/05/28 05:42:10;;;;;;;6.80;5.50;;;;;;;16.27;74.28;95668.25;106577;1275;24269;-72
2023/05/28 05:44:42;;;;;;;6.50;5.40;;;;;;;16.38;73.35;95666.23;106559;1275;22523;-73
2023/05/28 05:47:10;;;;;;;6.30;5.10;;;;;;;16.43;72.89;95663.52;106533;1275;22629;-73
2023/05/28 05:49:39;;;;;;;7.80;6.00;;;;;;;16.43;71.82;95659.44;106580;1275;23892;-74
2023/05/28 05:52:08;;;;;;;7.10;6.40;;;;;;;16.49;73.33;95660.80;106810;1275;25518;-74
2023/05/28 05:54:38;;;;;;;6.30;5.60;;;;;;;16.63;74.25;95661.09;106636;1275;22525;-73
2023/05/28 05:57:06;;;;;;;6.80;5.70;;;;;;;16.76;74.18;95658.96;106532;1275;22531;-74
2023/05/28 05:59:34;;;;;;;7.20;6.00;;;;;;;16.89;74.13;95659.86;106587;1275;24302;-73
2023/05/28 06:02:03;;;;;;;7.50;5.80;;;;;;;16.95;73.95;95662.11;106561;1275;22571;-74
2023/05/28 06:04:33;;;;;;;7.10;5.50;;;;;;;16.88;73.33;95664.55;106485;1275;22670;-73
2023/05/28 06:07:14;;;;;;;;;;;;;;;16.73;73.09;95667.29;106634;1276;24248;-73
2023/05/28 06:10:15;;;;;;;7.70;5.60;;;;;;;16.52;73.46;95669.03;106369;1275;22783;-73
2023/05/28 06:12:44;;;;;;;6.50;5.80;;;;;;;16.43;73.89;95671.32;106594;1275;24232;-73
2023/05/28 06:15:13;;;;;;;6.00;5.40;;;;;;;16.37;74.36;95673.72;106608;1275;22557;-73
2023/05/28 06:17:41;;;;;;;6.90;5.60;;;;;;;16.33;74.55;95678.31;106630;1275;22523;-73
2023/05/28 06:20:11;;;;;;;8.50;6.30;;;;;;;16.28;75.11;95676.20;106628;1275;22639;-74
2023/05/28 06:22:40;;;;;;;7.70;6.60;;;;;;;16.24;75.73;95681.85;106639;1275;22927;-73
2023/05/28 06:25:08;;;;;;;6.80;6.00;;;;;;;16.19;76.13;95682.39;106615;1275;24274;-74
2023/05/28 06:27:38;;;;;;;7.10;6.40;;;;;;;16.19;76.67;95685.41;106601;1275;25234;-74
2023/05/28 06:30:10;;;;;;;7.30;6.00;;;;;;;16.26;76.88;95682.27;106590;1275;26441;-73
2023/05/28 06:32:38;;;;;;;7.10;6.40;;;;;;;16.30;76.85;95682.34;106581;1275;24307;-74
2023/05/28 06:35:08;;;;;;;8.70;6.20;;;;;;;16.22;75.97;95690.61;106616;1275;22526;-73
2023/05/28 06:37:37;;;;;;;7.40;5.80;;;;;;;16.15;75.83;95691.06;106576;1275;22519;-73
2023/05/28 06:40:10;;;;;;;8.00;5.40;;;;;;;16.12;76.05;95691.55;106573;1275;22657;-73
2023/05/28 06:42:39;;;;;;;7.80;6.00;;;;;;;16.12;76.36;95692.77;106573;1275;25696;-74
2023/05/28 06:45:34;;;;;;;7.30;6.00;;;;;;;16.10;76.31;95691.64;106543;1275;22730;-74
2023/05/28 06:48:04;;;;;;;6.80;5.50;;;;;;;16.06;76.84;95694.77;106661;1275;25262;-74
2023/05/28 06:50:32;;;;;;;7.60;5.70;;;;;;;16.06;76.99;95688.42;106663;1275;22550;-73
2023/05/28 06:53:01;;;;;;;7.70;5.50;;;;;;;16.08;77.03;95689.56;106567;1275;24277;-74
2023/05/28 06:55:30;;;;;;;6.50;5.50;;;;;;;16.10;77.29;95690.73;106574;1275;22516;-73
2023/05/28 06:58:21;;;;;;;10.00;5.40;;;;;;;16.18;77.38;95696.29;106549;1275;22517;-74
2023/05/28 07:01:08;;;;;;;6.10;5.50;;;;;;;16.26;77.23;95702.54;106668;1275;22535;-74
2023/05/28 07:04:09;;;;;;;6.90;6.00;;;;;;;16.38;77.76;95697.27;106337;1275;24634;-74
2023/05/28 07:06:46;;;;;;;5.80;5.20;;;;;;;16.46;77.31;95698.91;106554;1275;22520;-74
2023/05/28 07:09:21;;;;;;;7.40;5.00;;;;;;;16.52;76.93;95699.37;106324;1274;22524;-74
2023/05/28 07:11:50;;;;;;;6.00;5.10;;;;;;;16.62;76.75;95697.55;106524;1276;24378;-73
2023/05/28 07:14:18;;;;;;;6.50;5.60;;;;;;;16.68;76.45;95703.52;106633;1276;22532;-74
2023/05/28 07:16:47;;;;;;;7.40;5.70;;;;;;;16.78;76.67;95699.23;106486;1276;22527;-74
2023/05/28 07:19:15;;;;;;;7.90;5.80;;;;;;;16.80;75.83;95693.82;106598;1276;24696;-74
2023/05/28 07:21:47;;;;;;;6.40;5.80;;;;;;;16.84;75.66;95689.04;106449;1276;22554;-74
2023/05/28 07:24:16;;;;;;;7.10;6.10;;;;;;;16.91;75.81;95683.98;106470;1276;24375;-74
2023/05/28 07:26:44;;;;;;;7.10;6.40;;;;;;;17.08;76.73;95681.63;106564;1276;25370;-74
2023/05/28 07:29:16;;;;;;;9.10;6.30;;;;;;;17.30;76.03;95680.52;106505;1276;22642;-74
2023/05/28 07:31:44;;;;;;;9.10;5.90;;;;;;;17.49;75.23;95682.01;106415;1276;23019;-74
2023/05/28 07:34:13;;;;;;;7.60;6.20;;;;;;;17.69;74.41;95683.23;106517;1276;25385;-74
2023/05/28 07:36:43;;;;;;;9.90;6.20;;;;;;;17.81;72.91;95682.16;106554;1276;25234;-74
2023/05/28 07:39:13;;;;;;;8.60;6.20;;;;;;;17.98;73.95;95684.94;106576;1265;24447;-74
2023/05/28 07:41:42;;;;;;;9.40;6.40;;;;;;;18.22;74.36;95682.61;106598;1276;25395;-74
2023/05/28 07:44:19;;;;;;;6.90;6.20;;;;;;;18.43;72.39;95677.48;106414;1276;22526;-74
2023/05/28 07:46:47;;;;;;;9.00;5.50;;;;;;;18.47;71.74;95675.54;106543;1276;22523;-74
2023/05/28 07:49:28;;;;;;;8.10;6.10;;;;;;;18.44;71.20;95677.30;106631;1276;25305;-74
2023/05/28 07:51:59;;;;;;;7.70;6.00;;;;;;;18.43;71.37;95673.22;106645;1276;24049;-74
2023/05/28 07:54:31;;;;;;;11.80;6.30;;;;;;;18.46;70.94;95674.15;106600;1276;22761;-74
2023/05/28 07:57:00;;;;;;;7.60;6.30;;;;;;;18.51;70.05;95667.70;106626;1276;25243;-73
2023/05/28 07:59:34;;;;;;;8.10;6.20;;;;;;;18.56;71.11;95670.30;106451;1276;22573;-74
2023/05/28 08:02:03;;;;;;;6.30;5.70;;;;;;;18.77;71.22;95667.84;106625;1276;22520;-74
2023/05/28 08:04:32;;;;;;;8.30;6.00;;;;;;;18.87;69.88;95667.33;106601;1276;22528;-74
2023/05/28 08:07:02;;;;;;;7.30;6.20;;;;;;;18.96;70.71;95666.55;106583;1276;26617;-74
2023/05/28 08:09:30;;;;;;;8.80;6.00;;;;;;;18.99;69.39;95668.54;106371;1276;22525;-74
2023/05/28 08:12:01;;;;;;;7.00;5.90;;;;;;;19.08;70.54;95671.48;106584;1276;22550;-73
2023/05/28 08:14:31;;;;;;;8.30;5.90;;;;;;;19.18;69.66;95672.58;106578;1276;22551;-74
2023/05/28 08:17:04;;;;;;;6.00;5.30;;;;;;;19.28;69.16;95674.20;106579;1276;26530;-73
2023/05/28 08:19:53;;;;;;;7.10;5.90;;;;;;;19.36;68.49;95674.48;106585;1276;25330;-74
2023/05/28 08:22:37;;;;;;;7.60;5.90;;;;;;;19.44;68.16;95677.62;106610;1276;22614;-74
2023/05/28 08:25:06;;;;;;;7.40;6.00;;;;;;;19.59;67.71;95668.84;106519;1276;25427;-74
2023/05/28 08:27:37;;;;;;;7.10;6.00;;;;;;;19.86;67.09;95667.40;106492;1276;25500;-74
2023/05/28 08:30:06;;;;;;;7.90;6.40;;;;;;;20.02;66.51;95665.14;106396;1276;22536;-74
2023/05/28 08:32:39;;;;;;;8.90;5.80;;;;;;;20.12;65.84;95669.04;106461;1276;22655;-74
2023/05/28 08:35:08;;;;;;;7.40;5.80;;;;;;;20.32;66.67;95657.95;106503;1276;24388;-74
2023/05/28 08:37:37;;;;;;;8.20;5.40;;;;;;;20.60;66.19;95653.35;106596;1276;25495;-74
2023/05/28 08:40:15;;;;;;;7.40;6.00;;;;;;;20.92;63.84;95651.10;106318;1276;24308;-74
2023/05/28 08:42:44;;;;;;;7.00;5.60;;;;;;;21.10;61.81;95642.39;106535;1276;22774;-74
2023/05/28 08:45:12;;;;;;;8.60;5.80;;;;;;;21.23;60.91;95637.86;106476;1276;25475;-74
2023/05/28 08:47:45;;;;;;;7.00;5.80;;;;;;;21.40;62.40;95633.28;106426;1276;23885;-74
2023/05/28 08:50:19;;;;;;;6.60;5.40;;;;;;;21.42;59.85;95635.15;106571;1276;25222;-74
2023/05/28 08:52:59;;;;;;;8.80;5.60;;;;;;;21.23;60.77;95634.48;106551;1276;22527;-75
2023/05/28 08:55:28;;;;;;;8.50;4.80;;;;;;;21.22;60.50;95630.94;106586;1276;24093;-74
2023/05/28 08:58:07;;;;;;;8.90;5.10;;;;;;;21.15;60.71;95629.20;106538;1276;22686;-74
2023/05/28 09:00:37;;;;;;;6.20;5.60;;;;;;;21.13;61.46;95629.33;106667;1276;24327;-75
2023/05/28 09:03:24;;;;;;;7.50;6.00;;;;;;;21.15;61.57;95635.27;106600;1276;25473;-74
2023/05/28 09:05:53;;;;;;;8.20;5.60;;;;;;;21.17;61.28;95637.14;106620;1276;25464;-74
2023/05/28 09:08:22;;;;;;;9.40;5.60;;;;;;;20.99;61.10;95633.00;106456;1276;24075;-74
2023/05/28 09:10:50;;;;;;;7.50;5.40;;;;;;;21.02;61.66;95633.91;106551;1276;25476;-74
2023/05/28 09:13:22;;;;;;;7.90;5.80;;;;;;;21.04;61.81;95637.58;106388;1276;22667;-74
2023/05/28 09:15:51;;;;;;;11.30;5.00;;;;;;;20.98;62.03;95637.18;106567;1276;22639;-73
2023/05/28 09:18:21;;;;;;;6.40;5.50;;;;;;;20.85;61.84;95638.30;106592;1276;24046;-74
2023/05/28 09:20:51;;;;;;;6.40;5.60;;;;;;;20.74;62.88;95636.27;106390;1254;23309;-74
2023/05/28 09:23:28;;;;;;;7.30;5.90;;;;;;;20.73;63.13;95634.88;106421;1276;22613;-74
2023/05/28 09:26:31;;;;;;;6.70;5.30;;;;;;;20.74;63.26;95634.48;106048;1276;24097;-74
2023/05/28 09:29:12;;;;;;;7.40;5.80;;;;;;;20.93;63.09;95635.35;106559;1253;25659;-74
2023/05/28 09:31:41;;;;;;;5.80;5.20;;;;;;;21.00;62.33;95632.61;106576;1276;22527;-74
2023/05/28 09:34:10;;;;;;;6.90;5.30;;;;;;;20.83;61.15;95630.57;106584;1276;22523;-74
2023/05/28 09:36:39;;;;;;;6.30;5.50;;;;;;;20.70;62.51;95632.00;106427;1276;22788;-74
2023/05/28 09:39:08;;;;;;;8.10;5.90;;;;;;;20.58;63.27;95637.37;106581;1276;22624;-74
2023/05/28 09:41:43;;;;;;;9.60;5.60;;;;;;;20.42;62.77;95633.96;106550;1276;23020;-74
2023/05/28 09:44:12;;;;;;;6.00;5.30;;;;;;;20.20;63.48;95635.02;106541;1276;24066;-74
2023/05/28 09:46:46;;;;;;;7.10;5.50;;;;;;;20.01;64.24;95632.83;106570;1258;22635;-74
2023/05/28 09:49:14;;;;;;;6.00;5.10;;;;;;;19.89;65.04;95638.19;106590;1276;22548;-74
2023/05/28 09:51:48;;;;;;;7.60;5.20;;;;;;;19.81;65.22;95636.80;106589;1276;22540;-74
2023/05/28 09:54:17;;;;;;;7.70;6.00;;;;;;;19.78;65.75;95633.78;106551;1276;22994;-74
2023/05/28 09:56:51;;;;;;;9.90;5.40;;;;;;;19.72;65.69;95633.92;106586;1276;22531;-74
2023/05/28 09:59:25;;;;;;;7.30;5.30;;;;;;;19.68;65.86;95636.07;106562;1276;22526;-74
2023/05/28 10:02:00;;;;;;;14.00;5.80;;;;;;;19.68;66.07;95640.73;106597;1276;22946;-74
2023/05/28 10:04:35;;;;;;;8.50;5.80;;;;;;;19.69;66.40;95639.05;106615;1276;22551;-74
2023/05/28 10:07:10;;;;;;;8.60;5.30;;;;;;;19.66;66.47;95634.58;106642;1276;23128;-74
2023/05/28 10:09:40;;;;;;;9.80;5.40;;;;;;;19.63;66.48;95635.77;106658;1275;24207;-74
2023/05/28 10:12:12;;;;;;;9.10;6.60;;;;;;;19.64;66.54;95635.73;106636;1275;24235;-73
2023/05/28 10:14:42;;;;;;;9.40;5.40;;;;;;;19.66;66.51;95633.50;106598;1275;22541;-74
2023/05/28 10:17:11;;;;;;;7.90;5.60;;;;;;;19.67;66.73;95636.12;106642;1275;25582;-74
2023/05/28 10:19:40;;;;;;;8.90;5.80;;;;;;;19.71;66.44;95634.48;106558;1275;22536;-74
2023/05/28 10:22:08;;;;;;;7.40;5.90;;;;;;;19.71;66.11;95633.94;106595;1275;22529;-74
2023/05/28 10:24:37;;;;;;;7.50;6.00;;;;;;;19.74;66.36;95634.72;106362;1275;25358;-73
2023/05/28 10:27:06;;;;;;;8.30;5.60;;;;;;;19.71;66.41;95639.52;106640;1271;23001;-74
2023/05/28 10:29:43;;;;;;;6.80;5.80;;;;;;;19.74;67.02;95636.31;106553;1275;22522;-74
2023/05/28 10:32:15;;;;;;;8.80;6.10;;;;;;;19.78;66.83;95639.66;106582;1275;22525;-74
2023/05/28 10:34:44;;;;;;;8.70;6.30;;;;;;;19.77;66.93;95633.42;106588;1275;24090;-74
2023/05/28 10:37:15;;;;;;;7.50;5.90;;;;;;;19.80;66.84;95633.67;106596;1265;22522;-74
2023/05/28 10:39:47;;;;;;;8.30;6.10;;;;;;;19.78;67.01;95632.67;106612;1275;24340;-74
2023/05/28 10:42:20;;;;;;;6.20;4.60;;;;;;;19.83;66.65;95629.34;106525;1275;22520;-74
2023/05/28 10:45:03;;;;;;;5.40;4.70;;;;;;;19.86;64.48;95626.70;106590;1276;22585;-74
2023/05/28 10:47:33;;;;;;;6.70;3.60;;;;;;;19.77;61.55;95629.73;106562;1275;22764;-74
2023/05/28 10:50:15;;;;;;;4.50;3.80;;;;;;;19.59;58.90;95629.74;106584;1275;22524;-74
2023/05/28 10:53:10;;;;;;;6.80;3.80;;;;;;;19.41;58.48;95635.67;106582;1275;22715;-74
2023/05/28 10:55:48;;;;;;;4.90;3.70;;;;;;;19.15;57.81;95634.37;106392;1275;25348;-74
2023/05/28 10:58:27;;;;;;;4.10;3.70;;;;;;;19.07;58.67;95635.15;106573;1275;22510;-73
2023/05/28 11:01:10;;;;;;;4.20;3.70;;;;;;;18.96;58.86;95636.94;106604;1275;23941;-74
2023/05/28 11:03:39;;;;;;;;;;;;;;;18.86;59.43;95640.33;106587;1276;22498;-74
2023/05/28 11:06:10;;;;;;;4.80;3.80;;;;;;;18.80;59.89;95637.60;106636;1275;24375;-73
2023/05/28 11:08:48;;;;;;;4.40;3.50;;;;;;;18.85;60.45;95639.86;106639;1275;22508;-75
2023/05/28 11:11:17;;;;;;;5.30;3.50;;;;;;;18.86;59.24;95635.69;106617;1275;22524;-73
2023/05/28 11:13:48;;;;;;;3.80;3.40;;;;;;;18.82;58.81;95631.06;106548;1275;25395;-74
2023/05/28 11:16:18;;;;;;;5.50;3.50;;;;;;;18.75;58.32;95630.33;106627;1275;22676;-74
2023/05/28 11:19:01;;;;;;;5.30;3.40;;;;;;;18.83;59.77;95637.42;106574;1275;22524;-74
2023/05/28 11:21:31;;;;;;;4.20;3.40;;;;;;;18.87;59.17;95633.84;106606;1275;24391;-74
2023/05/28 11:24:04;;;;;;;4.10;3.40;;;;;;;18.90;59.38;95628.88;106610;1275;25379;-74
2023/05/28 11:26:32;;;;;;;3.40;2.90;;;;;;;18.93;59.62;95624.62;106566;1276;22619;-74
2023/05/28 11:29:02;;;;;;;3.20;2.90;;;;;;;18.95;59.59;95618.08;106652;1275;22523;-73
2023/05/28 11:31:39;;;;;;;6.00;4.60;;;;;;;18.96;59.36;95622.33;106604;1275;25690;-73
2023/05/28 11:34:09;;;;;;;4.50;3.20;;;;;;;19.00;59.43;95627.98;106626;1262;24385;-73
2023/05/28 11:36:41;;;;;;;3.80;3.20;;;;;;;19.10;59.74;95634.67;106613;1276;25223;-73
2023/05/28 11:39:11;;;;;;;7.40;3.20;;;;;;;19.24;60.64;95631.23;106610;1275;22578;-74
2023/05/28 11:41:39;;;;;;;5.10;3.40;;;;;;;19.35;60.09;95633.15;106610;1275;22520;-74
2023/05/28 11:44:19;;;;;;;4.20;3.00;;;;;;;19.41;60.70;95627.32;106598;1275;22516;-74
2023/05/28 11:46:53;;;;;;;3.90;3.20;;;;;;;19.39;59.17;95628.83;106636;1275;25333;-74
2023/05/28 11:49:23;;;;;;;3.10;2.70;;;;;;;19.31;58.71;95630.68;106689;1275;24357;-74
2023/05/28 11:51:52;;;;;;;3.60;3.10;;;;;;;19.25;59.20;95625.11;106616;1275;24201;-74